createdAt,value
2019-04-04T00:00:54.409Z,995.69
2019-04-04T00:01:54.444Z,995.64
2019-04-04T00:02:54.477Z,995.68
2019-04-04T00:03:54.511Z,995.63
2019-04-04T00:04:54.547Z,995.66
2019-04-04T00:05:56.390Z,995.67
2019-04-04T00:06:57.852Z,995.62
2019-04-04T00:07:54.647Z,995.63
2019-04-04T00:08:54.685Z,995.65
2019-04-04T00:09:54.714Z,995.63
2019-04-04T00:10:54.749Z,995.64
2019-04-04T00:11:54.783Z,995.60
2019-04-04T00:12:54.817Z,995.62
2019-04-04T00:13:54.849Z,995.61
2019-04-04T00:14:54.885Z,995.65
2019-04-04T00:15:54.918Z,995.61
2019-04-04T00:16:54.954Z,995.58
2019-04-04T00:17:54.987Z,995.60
2019-04-04T00:18:55.020Z,995.61
2019-04-04T00:19:55.054Z,995.59
2019-04-04T00:20:55.092Z,995.60
2019-04-04T00:21:55.121Z,995.60
2019-04-04T00:22:55.155Z,995.60
2019-04-04T00:23:55.189Z,995.61
2019-04-04T00:24:55.227Z,995.62
2019-04-04T00:25:55.258Z,995.57
2019-04-04T00:26:55.292Z,995.61
2019-04-04T00:27:55.327Z,995.55
2019-04-04T00:28:55.360Z,995.57
2019-04-04T00:29:55.393Z,995.57
2019-04-04T00:30:55.426Z,995.58
2019-04-04T00:31:55.459Z,995.56
2019-04-04T00:32:55.498Z,995.57
2019-04-04T00:33:55.959Z,995.51
2019-04-04T00:34:55.562Z,995.55
2019-04-04T00:35:55.598Z,995.58
2019-04-04T00:36:55.630Z,995.50
2019-04-04T00:37:55.664Z,995.50
2019-04-04T00:38:55.698Z,995.54
2019-04-04T00:39:55.732Z,995.47
2019-04-04T00:40:55.765Z,995.49
2019-04-04T00:41:55.799Z,995.47
2019-04-04T00:42:55.833Z,995.49
2019-04-04T00:43:55.872Z,995.45
2019-04-04T00:44:56.360Z,995.45
2019-04-04T00:45:55.934Z,995.45
2019-04-04T00:46:55.968Z,995.43
2019-04-04T00:47:56.002Z,995.41
2019-04-04T00:48:56.035Z,995.41
2019-04-04T00:51:03.275Z,995.42
2019-04-04T00:53:00.135Z,995.35
2019-04-04T00:54:00.165Z,995.34
2019-04-04T00:56:04.195Z,995.36
2019-04-04T00:57:04.224Z,995.33
2019-04-04T00:59:08.277Z,995.30
2019-04-04T01:00:08.282Z,995.33
2019-04-04T01:02:12.317Z,995.26
2019-04-04T01:03:12.345Z,995.26
2019-04-04T01:05:16.383Z,995.22
2019-04-04T01:06:16.411Z,995.20
2019-04-04T01:07:16.444Z,995.22
2019-04-04T01:08:16.479Z,995.20
2019-04-04T01:09:16.513Z,995.18
2019-04-04T01:10:18.815Z,995.15
2019-04-04T01:11:18.326Z,995.18
2019-04-04T01:12:16.611Z,995.15
2019-04-04T01:13:16.647Z,995.18
2019-04-04T01:14:16.680Z,995.15
2019-04-04T01:15:16.717Z,995.17
2019-04-04T01:16:16.747Z,995.14
2019-04-04T01:17:16.782Z,995.12
2019-04-04T01:18:16.812Z,995.14
2019-04-04T01:19:16.849Z,995.12
2019-04-04T01:20:18.121Z,995.15
2019-04-04T01:21:16.917Z,995.14
2019-04-04T01:22:16.949Z,995.19
2019-04-04T01:23:16.981Z,995.12
2019-04-04T01:24:17.018Z,995.14
2019-04-04T01:25:17.048Z,995.12
2019-04-04T01:26:17.083Z,995.15
2019-04-04T01:27:17.117Z,995.14
2019-04-04T01:28:17.150Z,995.14
2019-04-04T01:29:17.193Z,995.14
2019-04-04T01:30:17.219Z,995.17
2019-04-04T01:31:17.250Z,995.13
2019-04-04T01:32:17.659Z,995.11
2019-04-04T01:33:19.692Z,995.13
2019-04-04T01:34:18.792Z,995.11
2019-04-04T01:35:17.384Z,995.08
2019-04-04T01:36:17.424Z,995.09
2019-04-04T01:37:17.454Z,995.14
2019-04-04T01:38:17.486Z,995.11
2019-04-04T01:39:17.519Z,995.13
2019-04-04T01:40:17.552Z,995.07
2019-04-04T01:41:17.584Z,995.11
2019-04-04T01:42:17.621Z,995.11
2019-04-04T01:43:17.655Z,995.11
2019-04-04T01:44:17.686Z,995.10
2019-04-04T01:45:17.722Z,995.09
2019-04-04T01:46:17.753Z,995.01
2019-04-04T01:47:17.786Z,995.02
2019-04-04T01:48:18.809Z,995.07
2019-04-04T01:49:19.119Z,995.04
2019-04-04T01:50:17.886Z,995.06
2019-04-04T01:51:17.921Z,995.11
2019-04-04T01:52:17.953Z,995.08
2019-04-04T01:53:17.990Z,995.08
2019-04-04T01:54:18.019Z,995.14
2019-04-04T01:55:18.057Z,995.12
2019-04-04T01:56:18.086Z,995.12
2019-04-04T01:57:18.121Z,995.14
2019-04-04T01:58:18.154Z,995.16
2019-04-04T01:59:18.189Z,995.14
2019-04-04T02:00:18.220Z,995.13
2019-04-04T02:01:18.254Z,995.11
2019-04-04T02:02:18.626Z,995.09
2019-04-04T02:03:18.321Z,995.09
2019-04-04T02:04:18.354Z,995.07
2019-04-04T02:05:18.385Z,995.10
2019-04-04T02:06:18.422Z,995.09
2019-04-04T02:07:18.454Z,995.11
2019-04-04T02:08:18.486Z,995.15
2019-04-04T02:09:18.524Z,995.20
2019-04-04T02:10:18.552Z,995.19
2019-04-04T02:11:18.586Z,995.26
2019-04-04T02:12:18.619Z,995.26
2019-04-04T02:13:18.654Z,995.30
2019-04-04T02:14:19.563Z,995.32
2019-04-04T02:15:18.722Z,995.36
2019-04-04T02:16:18.752Z,995.36
2019-04-04T02:17:20.110Z,995.32
2019-04-04T02:18:18.821Z,995.38
2019-04-04T02:19:18.852Z,995.32
2019-04-04T02:20:18.886Z,995.29
2019-04-04T02:21:18.920Z,995.29
2019-04-04T02:22:18.952Z,995.28
2019-04-04T02:23:18.985Z,995.22
2019-04-04T02:24:19.018Z,995.24
2019-04-04T02:25:19.050Z,995.26
2019-04-04T02:26:19.084Z,995.27
2019-04-04T02:27:19.118Z,995.24
2019-04-04T02:28:19.237Z,995.22
2019-04-04T02:29:19.184Z,995.24
2019-04-04T02:30:19.281Z,995.22
2019-04-04T02:31:21.038Z,995.18
2019-04-04T02:32:19.285Z,995.13
2019-04-04T02:33:19.316Z,995.13
2019-04-04T02:34:19.349Z,995.11
2019-04-04T02:35:19.382Z,995.07
2019-04-04T02:36:19.416Z,995.01
2019-04-04T02:37:21.209Z,995.00
2019-04-04T02:38:19.482Z,995.03
2019-04-04T02:39:19.517Z,995.03
2019-04-04T02:40:19.554Z,995.10
2019-04-04T02:41:19.582Z,995.06
2019-04-04T02:42:22.248Z,995.02
2019-04-04T02:43:19.649Z,995.05
2019-04-04T02:44:19.689Z,995.02
2019-04-04T02:45:19.713Z,995.03
2019-04-04T02:46:19.746Z,994.97
2019-04-04T02:47:19.785Z,994.93
2019-04-04T02:48:23.336Z,994.92
2019-04-04T02:49:19.886Z,994.92
2019-04-04T02:50:19.881Z,994.95
2019-04-04T02:51:19.918Z,994.93
2019-04-04T02:52:19.945Z,995.00
2019-04-04T02:53:20.535Z,995.00
2019-04-04T02:54:23.985Z,994.97
2019-04-04T02:55:20.047Z,994.94
2019-04-04T02:56:20.081Z,994.95
2019-04-04T02:57:20.109Z,994.92
2019-04-04T02:58:20.145Z,994.93
2019-04-04T02:59:21.688Z,994.94
2019-04-04T03:00:20.211Z,994.97
2019-04-04T03:01:20.242Z,995.00
2019-04-04T03:02:20.277Z,995.02
2019-04-04T03:03:20.311Z,994.96
2019-04-04T03:04:20.356Z,994.95
2019-04-04T03:05:20.372Z,994.91
2019-04-04T03:06:23.907Z,994.90
2019-04-04T03:07:20.442Z,994.89
2019-04-04T03:08:20.474Z,994.93
2019-04-04T03:09:20.509Z,994.95
2019-04-04T03:10:20.556Z,994.96
2019-04-04T03:11:21.977Z,994.99
2019-04-04T03:12:20.613Z,995.01
2019-04-04T03:13:20.647Z,995.03
2019-04-04T03:14:20.675Z,994.97
2019-04-04T03:15:20.704Z,994.95
2019-04-04T03:16:21.534Z,994.95
2019-04-04T03:17:20.874Z,994.97
2019-04-04T03:18:20.803Z,994.97
2019-04-04T03:19:20.836Z,994.96
2019-04-04T03:20:20.870Z,994.97
2019-04-04T03:21:23.495Z,994.98
2019-04-04T03:22:20.933Z,994.95
2019-04-04T03:23:20.968Z,994.93
2019-04-04T03:24:21.001Z,994.93
2019-04-04T03:25:21.032Z,994.97
2019-04-04T03:26:21.068Z,995.03
2019-04-04T03:27:25.457Z,995.03
2019-04-04T03:28:21.132Z,995.01
2019-04-04T03:29:21.167Z,994.98
2019-04-04T03:30:21.197Z,994.97
2019-04-04T03:31:21.230Z,994.98
2019-04-04T03:32:21.263Z,994.98
2019-04-04T03:33:25.127Z,995.00
2019-04-04T03:34:21.358Z,995.02
2019-04-04T03:35:25.563Z,995.01
2019-04-04T03:36:21.399Z,995.03
2019-04-04T03:37:21.427Z,995.01
2019-04-04T03:38:21.465Z,994.98
2019-04-04T03:39:21.489Z,994.99
2019-04-04T03:40:24.733Z,995.02
2019-04-04T03:41:21.557Z,995.03
2019-04-04T03:42:21.608Z,995.04
2019-04-04T03:43:21.622Z,995.02
2019-04-04T03:44:21.656Z,995.02
2019-04-04T03:45:26.248Z,995.02
2019-04-04T03:46:21.721Z,995.00
2019-04-04T03:47:21.753Z,994.99
2019-04-04T03:48:21.788Z,995.00
2019-04-04T03:49:24.415Z,994.93
2019-04-04T03:50:21.851Z,994.93
2019-04-04T03:51:21.886Z,994.96
2019-04-04T03:52:21.916Z,994.96
2019-04-04T03:53:21.952Z,994.97
2019-04-04T03:54:23.350Z,994.96
2019-04-04T03:55:22.014Z,994.97
2019-04-04T03:56:22.050Z,994.97
2019-04-04T03:57:22.079Z,994.95
2019-04-04T03:58:22.112Z,994.89
2019-04-04T03:59:22.145Z,994.91
2019-04-04T04:00:22.190Z,994.89
2019-04-04T04:01:22.210Z,994.90
2019-04-04T04:02:22.241Z,994.85
2019-04-04T04:03:23.511Z,994.91
2019-04-04T04:04:26.742Z,994.91
2019-04-04T04:05:22.339Z,994.91
2019-04-04T04:06:22.373Z,994.93
2019-04-04T04:07:22.406Z,994.94
2019-04-04T04:08:22.438Z,994.94
2019-04-04T04:09:23.475Z,994.92
2019-04-04T04:10:22.502Z,994.94
2019-04-04T04:11:22.536Z,994.89
2019-04-04T04:12:22.576Z,994.91
2019-04-04T04:13:22.601Z,994.89
2019-04-04T04:14:22.800Z,994.92
2019-04-04T04:15:22.680Z,994.89
2019-04-04T04:16:22.705Z,994.96
2019-04-04T04:17:22.732Z,994.92
2019-04-04T04:18:22.762Z,994.93
2019-04-04T04:19:24.476Z,994.92
2019-04-04T04:20:22.839Z,994.89
2019-04-04T04:21:22.862Z,994.91
2019-04-04T04:22:22.895Z,994.92
2019-04-04T04:23:23.842Z,994.89
2019-04-04T04:24:22.965Z,994.86
2019-04-04T04:25:22.991Z,994.89
2019-04-04T04:26:23.025Z,994.85
2019-04-04T04:27:23.061Z,994.87
2019-04-04T04:28:23.093Z,994.90
2019-04-04T04:29:23.123Z,994.90
2019-04-04T04:30:23.155Z,994.89
2019-04-04T04:31:23.187Z,994.88
2019-04-04T04:32:23.229Z,994.90
2019-04-04T04:33:23.252Z,994.85
2019-04-04T04:34:23.282Z,994.91
2019-04-04T04:35:23.325Z,994.88
2019-04-04T04:36:23.355Z,994.86
2019-04-04T04:37:23.378Z,994.86
2019-04-04T04:38:26.882Z,994.86
2019-04-04T04:39:23.446Z,994.85
2019-04-04T04:40:23.495Z,994.84
2019-04-04T04:41:23.511Z,994.82
2019-04-04T04:42:26.175Z,994.82
2019-04-04T04:43:23.576Z,994.83
2019-04-04T04:44:23.612Z,994.84
2019-04-04T04:45:23.641Z,994.84
2019-04-04T04:46:23.677Z,994.82
2019-04-04T04:47:24.151Z,994.80
2019-04-04T04:48:25.970Z,994.80
2019-04-04T04:49:23.775Z,994.80
2019-04-04T04:50:23.801Z,994.79
2019-04-04T04:51:23.833Z,994.78
2019-04-04T04:52:23.871Z,994.77
2019-04-04T04:53:23.899Z,994.78
2019-04-04T04:54:23.931Z,994.73
2019-04-04T04:55:24.540Z,994.76
2019-04-04T04:56:23.999Z,994.78
2019-04-04T04:57:29.989Z,994.76
2019-04-04T04:58:24.069Z,994.78
2019-04-04T04:59:24.093Z,994.76
2019-04-04T05:00:24.131Z,994.71
2019-04-04T05:01:24.155Z,994.73
2019-04-04T05:02:24.188Z,994.72
2019-04-04T05:03:24.850Z,994.73
2019-04-04T05:04:27.836Z,994.75
2019-04-04T05:05:24.286Z,994.75
2019-04-04T05:06:24.318Z,994.75
2019-04-04T05:07:24.353Z,994.76
2019-04-04T05:08:24.387Z,994.80
2019-04-04T05:09:24.418Z,994.84
2019-04-04T05:10:24.448Z,994.85
2019-04-04T05:11:24.480Z,994.88
2019-04-04T05:12:24.520Z,994.86
2019-04-04T05:13:26.099Z,994.88
2019-04-04T05:14:24.577Z,994.81
2019-04-04T05:15:24.609Z,994.80
2019-04-04T05:16:24.649Z,994.84
2019-04-04T05:17:24.678Z,994.83
2019-04-04T05:18:24.707Z,994.77
2019-04-04T05:19:24.761Z,994.77
2019-04-04T05:20:25.612Z,994.78
2019-04-04T05:21:28.523Z,994.81
2019-04-04T05:22:24.835Z,994.82
2019-04-04T05:23:24.890Z,994.84
2019-04-04T05:24:24.916Z,994.88
2019-04-04T05:25:24.931Z,994.87
2019-04-04T05:26:24.984Z,994.88
2019-04-04T05:27:24.997Z,994.88
2019-04-04T05:28:25.031Z,994.87
2019-04-04T05:29:25.060Z,994.93
2019-04-04T05:30:25.094Z,994.94
2019-04-04T05:31:25.167Z,994.99
2019-04-04T05:32:25.158Z,994.99
2019-04-04T05:33:27.413Z,995.00
2019-04-04T05:34:25.244Z,994.96
2019-04-04T05:35:25.256Z,994.98
2019-04-04T05:36:25.288Z,994.96
2019-04-04T05:37:27.485Z,994.91
2019-04-04T05:38:25.353Z,994.90
2019-04-04T05:39:25.388Z,994.88
2019-04-04T05:40:25.424Z,994.90
2019-04-04T05:41:27.264Z,994.89
2019-04-04T05:42:25.495Z,994.89
2019-04-04T05:43:25.517Z,994.88
2019-04-04T05:44:25.551Z,994.92
2019-04-04T05:45:25.578Z,994.94
2019-04-04T05:46:25.611Z,994.92
2019-04-04T05:47:25.665Z,994.93
2019-04-04T05:48:28.775Z,994.90
2019-04-04T05:49:25.713Z,994.84
2019-04-04T05:50:25.741Z,994.91
2019-04-04T05:51:25.790Z,994.90
2019-04-04T05:52:25.837Z,994.88
2019-04-04T05:53:25.837Z,994.89
2019-04-04T05:54:25.871Z,994.85
2019-04-04T05:55:25.910Z,994.83
2019-04-04T05:56:25.936Z,994.80
2019-04-04T05:57:25.965Z,994.84
2019-04-04T05:58:26.000Z,994.77
2019-04-04T05:59:26.050Z,994.82
2019-04-04T06:00:27.364Z,994.76
2019-04-04T06:01:26.097Z,994.79
2019-04-04T06:02:26.129Z,994.77
2019-04-04T06:03:26.159Z,994.77
2019-04-04T06:04:26.195Z,994.80
2019-04-04T06:05:27.298Z,994.83
2019-04-04T06:06:26.257Z,994.85
2019-04-04T06:07:26.298Z,994.84
2019-04-04T06:08:26.322Z,994.85
2019-04-04T06:09:26.357Z,994.84
2019-04-04T06:10:26.386Z,994.84
2019-04-04T06:11:26.420Z,994.86
2019-04-04T06:12:26.452Z,994.85
2019-04-04T06:13:27.004Z,994.87
2019-04-04T06:14:29.679Z,994.90
2019-04-04T06:15:26.550Z,994.88
2019-04-04T06:16:26.582Z,994.92
2019-04-04T06:17:27.049Z,994.86
2019-04-04T06:18:26.646Z,994.92
2019-04-04T06:19:26.678Z,994.94
2019-04-04T06:20:26.713Z,994.86
2019-04-04T06:21:26.745Z,994.88
2019-04-04T06:22:26.775Z,994.83
2019-04-04T06:23:26.809Z,994.86
2019-04-04T06:24:27.333Z,994.91
2019-04-04T06:25:26.902Z,994.88
2019-04-04T06:26:26.906Z,994.87
2019-04-04T06:27:26.938Z,994.85
2019-04-04T06:28:26.972Z,994.87
2019-04-04T06:29:27.004Z,994.83
2019-04-04T06:30:27.040Z,994.91
2019-04-04T06:31:30.619Z,994.94
2019-04-04T06:32:27.106Z,994.92
2019-04-04T06:33:27.134Z,994.89
2019-04-04T06:34:27.174Z,994.86
2019-04-04T06:35:27.204Z,994.88
2019-04-04T06:36:27.232Z,994.86
2019-04-04T06:37:27.264Z,994.82
2019-04-04T06:38:27.297Z,994.85
2019-04-04T06:39:27.332Z,994.87
2019-04-04T06:40:28.074Z,994.79
2019-04-04T06:41:28.299Z,994.83
2019-04-04T06:42:27.429Z,994.81
2019-04-04T06:43:27.459Z,994.83
2019-04-04T06:44:27.497Z,994.85
2019-04-04T06:45:29.713Z,994.87
2019-04-04T06:46:27.558Z,994.88
2019-04-04T06:47:27.592Z,994.84
2019-04-04T06:48:29.773Z,994.85
2019-04-04T06:49:28.964Z,994.87
2019-04-04T06:50:27.697Z,994.84
2019-04-04T06:51:27.724Z,994.87
2019-04-04T06:52:27.755Z,994.88
2019-04-04T06:53:27.792Z,994.86
2019-04-04T06:54:27.822Z,994.92
2019-04-04T06:55:28.735Z,994.88
2019-04-04T06:56:27.886Z,994.87
2019-04-04T06:57:27.918Z,994.94
2019-04-04T06:58:27.952Z,994.98
2019-04-04T06:59:27.984Z,994.98
2019-04-04T07:00:28.017Z,994.97
2019-04-04T07:01:28.052Z,994.97
2019-04-04T07:02:28.082Z,995.00
2019-04-04T07:03:28.248Z,994.99
2019-04-04T07:04:29.278Z,995.01
2019-04-04T07:05:28.181Z,994.96
2019-04-04T07:06:28.215Z,994.98
2019-04-04T07:07:28.248Z,994.97
2019-04-04T07:08:28.284Z,994.98
2019-04-04T07:09:28.312Z,994.99
2019-04-04T07:10:28.346Z,994.96
2019-04-04T07:11:28.379Z,994.95
2019-04-04T07:12:28.747Z,994.98
2019-04-04T07:13:28.457Z,994.96
2019-04-04T07:14:31.876Z,994.93
2019-04-04T07:15:28.511Z,994.95
2019-04-04T07:16:28.550Z,995.00
2019-04-04T07:17:28.574Z,994.99
2019-04-04T07:18:28.610Z,995.01
2019-04-04T07:19:28.643Z,994.97
2019-04-04T07:20:28.743Z,994.96
2019-04-04T07:21:28.707Z,994.92
2019-04-04T07:22:28.741Z,994.97
2019-04-04T07:23:28.775Z,994.90
2019-04-04T07:24:29.030Z,994.95
2019-04-04T07:25:28.843Z,994.93
2019-04-04T07:26:28.873Z,994.89
2019-04-04T07:27:28.907Z,994.86
2019-04-04T07:28:30.856Z,994.84
2019-04-04T07:29:28.975Z,994.81
2019-04-04T07:30:29.314Z,994.82
2019-04-04T07:31:29.046Z,994.80
2019-04-04T07:32:29.074Z,994.78
2019-04-04T07:33:29.112Z,994.79
2019-04-04T07:34:29.142Z,994.78
2019-04-04T07:35:29.172Z,994.79
2019-04-04T07:36:29.208Z,994.78
2019-04-04T07:37:29.240Z,994.76
2019-04-04T07:38:29.388Z,994.81
2019-04-04T07:39:32.013Z,994.82
2019-04-04T07:40:29.339Z,994.80
2019-04-04T07:41:29.374Z,994.89
2019-04-04T07:42:29.407Z,994.93
2019-04-04T07:43:29.444Z,994.86
2019-04-04T07:44:29.474Z,994.86
2019-04-04T07:45:29.511Z,994.79
2019-04-04T07:46:29.542Z,994.76
2019-04-04T07:47:29.577Z,994.76
2019-04-04T07:48:29.611Z,994.78
2019-04-04T07:49:29.643Z,994.80
2019-04-04T07:50:29.677Z,994.70
2019-04-04T07:51:30.253Z,994.72
2019-04-04T07:52:32.757Z,994.76
2019-04-04T07:53:29.778Z,994.78
2019-04-04T07:54:31.894Z,994.74
2019-04-04T07:55:29.845Z,994.78
2019-04-04T07:56:29.879Z,994.73
2019-04-04T07:57:30.366Z,994.70
2019-04-04T07:58:29.946Z,994.70
2019-04-04T07:59:31.206Z,994.72
2019-04-04T08:00:30.018Z,994.72
2019-04-04T08:01:30.046Z,994.72
2019-04-04T08:02:30.083Z,994.82
2019-04-04T08:03:30.115Z,994.81
2019-04-04T08:04:30.151Z,994.81
2019-04-04T08:05:30.183Z,994.71
2019-04-04T08:06:30.216Z,994.73
2019-04-04T08:07:30.251Z,994.75
2019-04-04T08:08:30.283Z,994.68
2019-04-04T08:09:30.318Z,994.69
2019-04-04T08:10:30.359Z,994.74
2019-04-04T08:11:30.388Z,994.73
2019-04-04T08:12:30.420Z,994.74
2019-04-04T08:13:30.455Z,994.71
2019-04-04T08:14:30.490Z,994.71
2019-04-04T08:15:30.524Z,994.71
2019-04-04T08:16:30.556Z,994.71
2019-04-04T08:17:30.589Z,994.73
2019-04-04T08:18:30.625Z,994.74
2019-04-04T08:19:30.660Z,994.73
2019-04-04T08:20:30.693Z,994.76
2019-04-04T08:21:30.727Z,994.76
2019-04-04T08:22:30.762Z,994.72
2019-04-04T08:23:30.796Z,994.73
2019-04-04T08:24:30.830Z,994.75
2019-04-04T08:25:30.865Z,994.74
2019-04-04T08:26:30.899Z,994.74
2019-04-04T08:27:30.931Z,994.73
2019-04-04T08:28:30.967Z,994.76
2019-04-04T08:29:31.000Z,994.75
2019-04-04T08:30:31.038Z,994.70
2019-04-04T08:31:31.071Z,994.77
2019-04-04T08:32:31.104Z,994.71
2019-04-04T08:33:31.137Z,994.69
2019-04-04T08:34:31.172Z,994.73
2019-04-04T08:35:31.208Z,994.71
2019-04-04T08:36:31.242Z,994.69
2019-04-04T08:37:31.275Z,994.69
2019-04-04T08:38:31.311Z,994.67
2019-04-04T08:39:31.345Z,994.65
2019-04-04T08:40:31.379Z,994.65
2019-04-04T08:41:31.420Z,994.66
2019-04-04T08:42:31.446Z,994.70
2019-04-04T08:43:31.483Z,994.72
2019-04-04T08:44:31.516Z,994.74
2019-04-04T08:45:31.551Z,994.74
2019-04-04T08:46:31.584Z,994.76
2019-04-04T08:47:31.625Z,994.72
2019-04-04T08:48:31.653Z,994.75
2019-04-04T08:49:31.686Z,994.82
2019-04-04T08:50:31.732Z,994.84
2019-04-04T08:51:31.758Z,994.82
2019-04-04T08:52:31.792Z,994.85
2019-04-04T08:53:39.713Z,994.86
2019-04-04T08:54:31.861Z,994.89
2019-04-04T08:55:31.895Z,994.89
2019-04-04T08:56:31.930Z,994.85
2019-04-04T08:57:31.965Z,994.90
2019-04-04T08:58:32.001Z,994.85
2019-04-04T08:59:32.035Z,994.84
2019-04-04T09:00:32.071Z,994.84
2019-04-04T09:01:32.104Z,994.87
2019-04-04T09:02:32.138Z,994.85
2019-04-04T09:03:32.174Z,994.82
2019-04-04T09:04:32.209Z,994.86
2019-04-04T09:05:32.244Z,994.83
2019-04-04T09:06:32.294Z,994.83
2019-04-04T09:07:32.316Z,994.84
2019-04-04T09:08:32.350Z,994.81
2019-04-04T09:09:34.646Z,994.84
2019-04-04T09:10:32.420Z,994.82
2019-04-04T09:11:32.456Z,994.76
2019-04-04T09:12:32.507Z,994.76
2019-04-04T09:13:32.525Z,994.73
2019-04-04T09:14:32.562Z,994.69
2019-04-04T09:15:32.595Z,994.67
2019-04-04T09:16:32.633Z,994.68
2019-04-04T09:17:32.679Z,994.66
2019-04-04T09:18:32.703Z,994.72
2019-04-04T09:19:32.739Z,994.67
2019-04-04T09:20:32.776Z,994.64
2019-04-04T09:21:32.809Z,994.66
2019-04-04T09:22:32.845Z,994.61
2019-04-04T09:23:32.881Z,994.65
2019-04-04T09:24:32.917Z,994.60
2019-04-04T09:25:32.955Z,994.65
2019-04-04T09:26:32.989Z,994.60
2019-04-04T09:27:33.027Z,994.63
2019-04-04T09:28:33.061Z,994.62
2019-04-04T09:29:33.094Z,994.63
2019-04-04T09:30:33.132Z,994.62
2019-04-04T09:31:33.169Z,994.61
2019-04-04T09:32:33.205Z,994.61
2019-04-04T09:33:33.240Z,994.60
2019-04-04T09:34:33.278Z,994.65
2019-04-04T09:35:33.313Z,994.58
2019-04-04T09:36:33.393Z,994.57
2019-04-04T09:37:33.393Z,994.59
2019-04-04T09:38:33.423Z,994.59
2019-04-04T09:39:33.459Z,994.59
2019-04-04T09:40:33.495Z,994.58
2019-04-04T09:41:33.533Z,994.58
2019-04-04T09:42:33.569Z,994.55
2019-04-04T09:43:33.604Z,994.54
2019-04-04T09:44:33.641Z,994.54
2019-04-04T09:45:33.677Z,994.57
2019-04-04T09:46:33.713Z,994.56
2019-04-04T09:47:33.750Z,994.53
2019-04-04T09:48:33.788Z,994.52
2019-04-04T09:49:33.826Z,994.48
2019-04-04T09:50:33.860Z,994.49
2019-04-04T09:51:33.898Z,994.50
2019-04-04T09:52:33.935Z,994.51
2019-04-04T09:53:33.972Z,994.51
2019-04-04T09:54:34.010Z,994.49
2019-04-04T09:55:34.045Z,994.52
2019-04-04T09:56:34.083Z,994.58
2019-04-04T09:57:34.120Z,994.53
2019-04-04T09:58:34.162Z,994.53
2019-04-04T09:59:34.197Z,994.50
2019-04-04T10:00:34.231Z,994.52
2019-04-04T10:01:34.269Z,994.51
2019-04-04T10:02:34.305Z,994.49
2019-04-04T10:03:34.344Z,994.48
2019-04-04T10:04:34.385Z,994.45
2019-04-04T10:05:34.420Z,994.49
2019-04-04T10:06:34.457Z,994.41
2019-04-04T10:07:34.498Z,994.38
2019-04-04T10:08:34.531Z,994.35
2019-04-04T10:09:34.567Z,994.37
2019-04-04T10:10:34.606Z,994.37
2019-04-04T10:11:34.644Z,994.34
2019-04-04T10:12:34.681Z,994.31
2019-04-04T10:13:34.718Z,994.34
2019-04-04T10:14:34.754Z,994.32
2019-04-04T10:15:34.809Z,994.33
2019-04-04T10:16:34.832Z,994.33
2019-04-04T10:17:34.868Z,994.34
2019-04-04T10:18:34.906Z,994.34
2019-04-04T10:19:34.946Z,994.35
2019-04-04T10:20:34.980Z,994.35
2019-04-04T10:21:35.018Z,994.33
2019-04-04T10:22:35.057Z,994.32
2019-04-04T10:23:35.094Z,994.29
2019-04-04T10:24:35.135Z,994.31
2019-04-04T10:25:35.169Z,994.31
2019-04-04T10:26:35.206Z,994.30
2019-04-04T10:27:35.243Z,994.29
2019-04-04T10:28:35.294Z,994.32
2019-04-04T10:29:35.320Z,994.27
2019-04-04T10:30:35.358Z,994.30
2019-04-04T10:31:35.398Z,994.31
2019-04-04T10:32:35.435Z,994.29
2019-04-04T10:33:35.472Z,994.29
2019-04-04T10:34:35.510Z,994.33
2019-04-04T10:35:35.547Z,994.32
2019-04-04T10:36:35.585Z,994.28
2019-04-04T10:37:35.624Z,994.31
2019-04-04T10:38:35.665Z,994.29
2019-04-04T10:39:35.700Z,994.26
2019-04-04T10:40:35.741Z,994.27
2019-04-04T10:41:35.776Z,994.24
2019-04-04T10:42:35.816Z,994.21
2019-04-04T10:43:35.854Z,994.21
2019-04-04T10:44:37.255Z,994.24
2019-04-04T10:45:35.931Z,994.27
2019-04-04T10:46:35.968Z,994.25
2019-04-04T10:47:36.011Z,994.24
2019-04-04T10:48:36.047Z,994.25
2019-04-04T10:49:36.142Z,994.32
2019-04-04T10:50:36.123Z,994.29
2019-04-04T10:51:36.163Z,994.28
2019-04-04T10:52:36.201Z,994.26
2019-04-04T10:53:36.239Z,994.28
2019-04-04T10:54:36.277Z,994.29
2019-04-04T10:55:36.317Z,994.29
2019-04-04T10:56:36.390Z,994.23
2019-04-04T10:57:36.394Z,994.21
2019-04-04T10:58:36.469Z,994.24
2019-04-04T10:59:36.471Z,994.26
2019-04-04T11:00:36.512Z,994.27
2019-04-04T11:01:36.550Z,994.25
2019-04-04T11:02:36.589Z,994.25
2019-04-04T11:03:36.632Z,994.25
2019-04-04T11:04:36.669Z,994.24
2019-04-04T11:05:36.705Z,994.27
2019-04-04T11:06:36.744Z,994.24
2019-04-04T11:07:36.789Z,994.23
2019-04-04T11:08:36.824Z,994.30
2019-04-04T11:09:42.063Z,994.25
2019-04-04T11:10:36.900Z,994.32
2019-04-04T11:11:36.941Z,994.29
2019-04-04T11:12:36.981Z,994.28
2019-04-04T11:13:37.020Z,994.30
2019-04-04T11:14:37.058Z,994.27
2019-04-04T11:15:37.102Z,994.21
2019-04-04T11:16:37.139Z,994.22
2019-04-04T11:17:37.178Z,994.31
2019-04-04T11:18:37.216Z,994.25
2019-04-04T11:19:37.256Z,994.22
2019-04-04T11:20:37.297Z,994.27
2019-04-04T11:21:37.337Z,994.22
2019-04-04T11:22:37.378Z,994.18
2019-04-04T11:23:37.415Z,994.24
2019-04-04T11:24:37.457Z,994.21
2019-04-04T11:25:37.497Z,994.24
2019-04-04T11:26:37.538Z,994.24
2019-04-04T11:27:37.576Z,994.21
2019-04-04T11:28:37.615Z,994.24
2019-04-04T11:29:37.657Z,994.19
2019-04-04T11:30:37.696Z,994.21
2019-04-04T11:31:37.734Z,994.21
2019-04-04T11:32:37.776Z,994.20
2019-04-04T11:33:37.814Z,994.26
2019-04-04T11:34:37.855Z,994.23
2019-04-04T11:35:37.896Z,994.22
2019-04-04T11:36:37.935Z,994.30
2019-04-04T11:37:37.973Z,994.22
2019-04-04T11:38:38.015Z,994.26
2019-04-04T11:39:38.055Z,994.23
2019-04-04T11:40:38.093Z,994.24
2019-04-04T11:41:38.134Z,994.23
2019-04-04T11:42:38.175Z,994.20
2019-04-04T11:43:38.215Z,994.24
2019-04-04T11:44:38.255Z,994.23
2019-04-04T11:45:38.294Z,994.23
2019-04-04T11:46:38.336Z,994.26
2019-04-04T11:47:38.375Z,994.22
2019-04-04T11:48:38.419Z,994.27
2019-04-04T11:49:38.455Z,994.23
2019-04-04T11:50:39.873Z,994.25
2019-04-04T11:51:38.536Z,994.11
2019-04-04T11:52:38.577Z,994.10
2019-04-04T11:53:38.615Z,994.13
2019-04-04T11:54:38.656Z,994.12
2019-04-04T11:55:38.696Z,994.12
2019-04-04T11:56:38.736Z,994.16
2019-04-04T11:57:38.775Z,994.12
2019-04-04T11:58:38.815Z,994.11
2019-04-04T11:59:38.857Z,994.17
2019-04-04T12:00:38.900Z,994.08
2019-04-04T12:01:38.938Z,994.08
2019-04-04T12:02:38.980Z,994.04
2019-04-04T12:03:39.020Z,994.04
2019-04-04T12:04:39.059Z,993.96
2019-04-04T12:05:39.098Z,993.96
2019-04-04T12:06:39.139Z,994.03
2019-04-04T12:07:39.180Z,993.96
2019-04-04T12:08:39.220Z,993.91
2019-04-04T12:09:39.267Z,993.97
2019-04-04T12:10:39.300Z,993.92
2019-04-04T12:11:39.342Z,993.92
2019-04-04T12:12:39.382Z,993.99
2019-04-04T12:13:39.423Z,994.00
2019-04-04T12:14:39.463Z,993.93
2019-04-04T12:15:39.503Z,993.93
2019-04-04T12:16:39.548Z,993.98
2019-04-04T12:17:39.585Z,993.92
2019-04-04T12:18:39.625Z,994.01
2019-04-04T12:19:39.667Z,993.97
2019-04-04T12:20:39.707Z,993.98
2019-04-04T12:21:39.748Z,993.99
2019-04-04T12:22:39.788Z,994.03
2019-04-04T12:23:39.829Z,994.14
2019-04-04T12:24:39.869Z,994.08
2019-04-04T12:25:39.909Z,994.04
2019-04-04T12:26:39.951Z,994.00
2019-04-04T12:27:39.992Z,994.04
2019-04-04T12:28:40.034Z,994.03
2019-04-04T12:29:40.071Z,994.00
2019-04-04T12:30:40.118Z,994.08
2019-04-04T12:31:40.175Z,993.99
2019-04-04T12:32:40.193Z,994.03
2019-04-04T12:33:40.234Z,994.01
2019-04-04T12:34:40.272Z,993.93
2019-04-04T12:35:40.314Z,993.97